createdAt,value
2023-03-06T00:00:18.371Z,12.70
2023-03-06T00:01:18.350Z,12.10
2023-03-06T00:02:18.343Z,12.00
2023-03-06T00:03:18.350Z,12.20
2023-03-06T00:04:18.337Z,12.50
2023-03-06T00:05:18.306Z,12.70
2023-03-06T00:06:18.308Z,14.60
2023-03-06T00:07:18.287Z,11.60
2023-03-06T00:08:18.329Z,13.20
2023-03-06T00:09:18.284Z,12.90
2023-03-06T00:10:18.259Z,12.90
2023-03-06T00:11:18.267Z,12.60
2023-03-06T00:12:18.234Z,12.40
2023-03-06T00:13:18.230Z,13.10
2023-03-06T00:14:18.237Z,12.80
2023-03-06T00:15:18.196Z,13.20
2023-03-06T00:16:18.262Z,12.80
2023-03-06T00:17:18.207Z,12.80
2023-03-06T00:18:18.190Z,13.20
2023-03-06T00:19:18.191Z,13.30
2023-03-06T00:20:18.167Z,14.10
2023-03-06T00:21:18.133Z,13.10
2023-03-06T00:22:18.133Z,12.60
2023-03-06T00:23:18.115Z,12.50
2023-03-06T00:24:18.105Z,13.50
2023-03-06T00:25:18.100Z,14.60
2023-03-06T00:26:18.094Z,13.40
2023-03-06T00:27:18.071Z,13.20
2023-03-06T00:28:18.062Z,12.60
2023-03-06T00:29:18.076Z,13.20
2023-03-06T00:30:18.049Z,13.60
2023-03-06T00:31:18.081Z,13.60
2023-03-06T00:32:18.072Z,15.20
2023-03-06T00:33:18.020Z,14.60
2023-03-06T00:34:18.008Z,13.30
2023-03-06T00:35:18.059Z,12.80
2023-03-06T00:36:17.972Z,12.90
2023-03-06T00:37:17.954Z,13.90
2023-03-06T00:38:17.949Z,16.10
2023-03-06T00:39:17.942Z,13.60
2023-03-06T00:40:17.959Z,13.10
2023-03-06T00:41:17.923Z,15.40
2023-03-06T00:42:17.912Z,14.90
2023-03-06T00:43:25.405Z,14.80
2023-03-06T00:44:17.881Z,13.70
2023-03-06T00:45:17.892Z,13.50
2023-03-06T00:46:17.860Z,13.90
2023-03-06T00:47:17.851Z,14.20
2023-03-06T00:48:17.840Z,13.40
2023-03-06T00:49:17.829Z,13.90
2023-03-06T00:50:17.846Z,13.30
2023-03-06T00:51:17.843Z,13.60
2023-03-06T00:52:17.795Z,16.40
2023-03-06T00:53:17.780Z,13.10
2023-03-06T00:54:17.776Z,13.70
2023-03-06T00:55:17.767Z,13.20
2023-03-06T00:56:19.858Z,13.10
2023-03-06T00:57:17.736Z,14.40
2023-03-06T00:58:17.727Z,14.10
2023-03-06T00:59:17.717Z,13.50
2023-03-06T01:00:17.709Z,13.70
2023-03-06T01:01:17.801Z,13.90
2023-03-06T01:02:17.757Z,14.30
2023-03-06T01:03:17.695Z,14.30
2023-03-06T01:04:17.660Z,14.40
2023-03-06T01:05:17.666Z,14.40
2023-03-06T01:06:17.654Z,14.30
2023-03-06T01:07:17.662Z,13.40
2023-03-06T01:08:17.618Z,14.00
2023-03-06T01:09:17.625Z,14.40
2023-03-06T01:10:17.617Z,14.20
2023-03-06T01:11:17.615Z,14.70
2023-03-06T01:12:17.588Z,13.40
2023-03-06T01:13:17.557Z,14.40
2023-03-06T01:14:17.559Z,13.10
2023-03-06T01:15:17.540Z,15.00
2023-03-06T01:16:17.561Z,14.00
2023-03-06T01:17:17.524Z,14.40
2023-03-06T01:18:17.506Z,14.20
2023-03-06T01:19:17.518Z,13.50
2023-03-06T01:20:17.491Z,12.80
2023-03-06T01:21:17.486Z,14.10
2023-03-06T01:22:17.477Z,14.10
2023-03-06T01:23:17.468Z,13.90
2023-03-06T01:24:17.444Z,14.00
2023-03-06T01:25:17.426Z,13.90
2023-03-06T01:26:17.429Z,14.40
2023-03-06T01:27:17.418Z,14.80
2023-03-06T01:28:17.403Z,13.50
2023-03-06T01:29:17.389Z,14.00
2023-03-06T01:30:17.389Z,14.60
2023-03-06T01:31:17.422Z,12.70
2023-03-06T01:32:17.385Z,14.00
2023-03-06T01:33:17.358Z,13.30
2023-03-06T01:34:17.345Z,14.70
2023-03-06T01:35:17.434Z,14.60
2023-03-06T01:36:17.319Z,14.20
2023-03-06T01:37:17.337Z,13.50
2023-03-06T01:38:17.311Z,14.30
2023-03-06T01:39:17.300Z,14.10
2023-03-06T01:40:18.222Z,14.00
2023-03-06T01:41:17.264Z,15.20
2023-03-06T01:42:17.248Z,13.80
2023-03-06T01:43:17.261Z,13.60
2023-03-06T01:44:17.224Z,15.00
2023-03-06T01:45:17.223Z,14.60
2023-03-06T01:46:17.230Z,14.10
2023-03-06T01:47:17.192Z,14.10
2023-03-06T01:48:17.197Z,14.40
2023-03-06T01:49:17.185Z,14.30
2023-03-06T01:50:17.187Z,15.10
2023-03-06T01:51:17.160Z,15.30
2023-03-06T01:52:17.142Z,15.00
2023-03-06T01:53:17.155Z,13.80
2023-03-06T01:54:17.118Z,14.90
2023-03-06T01:55:17.128Z,14.70
2023-03-06T01:56:17.099Z,16.20
2023-03-06T01:57:17.097Z,15.10
2023-03-06T01:58:17.094Z,14.60
2023-03-06T01:59:17.060Z,14.40
2023-03-06T02:00:17.076Z,15.00
2023-03-06T02:01:17.167Z,14.60
2023-03-06T02:02:17.060Z,14.60
2023-03-06T02:03:17.030Z,14.30
2023-03-06T02:04:17.008Z,15.20
2023-03-06T02:05:17.028Z,15.00
2023-03-06T02:06:17.025Z,14.00
2023-03-06T02:07:16.985Z,14.90
2023-03-06T02:08:16.977Z,14.90
2023-03-06T02:09:16.953Z,14.70
2023-03-06T02:10:16.971Z,14.60
2023-03-06T02:11:16.988Z,14.70
2023-03-06T02:12:16.927Z,14.40
2023-03-06T02:13:16.916Z,14.00
2023-03-06T02:14:16.916Z,14.80
2023-03-06T02:15:16.894Z,13.80
2023-03-06T02:16:16.885Z,14.40
2023-03-06T02:17:16.872Z,14.50
2023-03-06T02:18:16.862Z,14.40
2023-03-06T02:19:16.855Z,14.80
2023-03-06T02:20:16.850Z,13.90
2023-03-06T02:21:16.821Z,14.80
2023-03-06T02:22:16.827Z,14.20
2023-03-06T02:23:16.803Z,14.20
2023-03-06T02:24:16.823Z,14.10
2023-03-06T02:25:16.792Z,14.60
2023-03-06T02:26:16.782Z,14.70
2023-03-06T02:27:16.781Z,14.70
2023-03-06T02:28:16.754Z,14.00
2023-03-06T02:29:16.759Z,13.90
2023-03-06T02:30:16.748Z,15.20
2023-03-06T02:31:16.789Z,15.70
2023-03-06T02:32:16.726Z,14.30
2023-03-06T02:33:16.711Z,13.80
2023-03-06T02:34:16.710Z,14.00
2023-03-06T02:35:16.689Z,15.00
2023-03-06T02:36:16.679Z,14.80
2023-03-06T02:37:16.666Z,15.70
2023-03-06T02:38:16.675Z,14.50
2023-03-06T02:39:16.629Z,14.50
2023-03-06T02:40:16.657Z,15.10
2023-03-06T02:41:16.625Z,14.70
2023-03-06T02:42:16.600Z,14.10
2023-03-06T02:43:16.614Z,13.90
2023-03-06T02:44:24.088Z,16.40
2023-03-06T02:45:16.560Z,14.70
2023-03-06T02:46:16.611Z,16.80
2023-03-06T02:47:16.545Z,14.70
2023-03-06T02:48:16.535Z,15.70
2023-03-06T02:49:16.516Z,14.90
2023-03-06T02:50:16.509Z,14.50
2023-03-06T02:51:16.505Z,15.90
2023-03-06T02:52:16.487Z,14.20
2023-03-06T02:53:16.488Z,15.90
2023-03-06T02:54:16.493Z,14.00
2023-03-06T02:55:16.460Z,14.70
2023-03-06T02:56:16.452Z,14.80
2023-03-06T02:57:16.491Z,15.40
2023-03-06T02:58:16.419Z,13.90
2023-03-06T02:59:16.450Z,13.40
2023-03-06T03:00:16.430Z,13.70
2023-03-06T03:01:16.424Z,14.20
2023-03-06T03:02:16.380Z,14.80
2023-03-06T03:03:16.370Z,14.00
2023-03-06T03:04:16.474Z,14.10
2023-03-06T03:05:16.346Z,14.20
2023-03-06T03:06:16.371Z,15.30
2023-03-06T03:07:16.337Z,14.40
2023-03-06T03:08:16.329Z,16.50
2023-03-06T03:09:17.225Z,13.50
2023-03-06T03:10:16.299Z,13.50
2023-03-06T03:11:16.276Z,15.00
2023-03-06T03:12:16.265Z,13.20
2023-03-06T03:13:16.246Z,13.20
2023-03-06T03:14:16.259Z,13.00
2023-03-06T03:15:16.262Z,12.60
2023-03-06T03:16:16.298Z,13.90
2023-03-06T03:17:16.216Z,13.30
2023-03-06T03:18:16.220Z,14.50
2023-03-06T03:19:16.188Z,14.50
2023-03-06T03:20:16.196Z,13.00
2023-03-06T03:21:16.178Z,13.70
2023-03-06T03:22:16.187Z,12.40
2023-03-06T03:23:16.148Z,12.30
2023-03-06T03:24:16.153Z,12.90
2023-03-06T03:25:16.132Z,13.40
2023-03-06T03:26:16.116Z,12.60
2023-03-06T03:27:16.097Z,13.00
2023-03-06T03:28:16.119Z,13.30
2023-03-06T03:29:16.109Z,13.30
2023-03-06T03:30:16.075Z,12.40
2023-03-06T03:31:16.180Z,12.40
2023-03-06T03:32:16.149Z,12.40
2023-03-06T03:33:16.040Z,12.10
2023-03-06T03:34:16.037Z,12.30
2023-03-06T03:35:16.023Z,12.30
2023-03-06T03:36:16.038Z,12.20
2023-03-06T03:37:16.002Z,12.30
2023-03-06T03:38:15.989Z,11.90
2023-03-06T03:39:16.001Z,12.80
2023-03-06T03:40:15.983Z,11.90
2023-03-06T03:41:15.948Z,12.00
2023-03-06T03:42:15.939Z,11.60
2023-03-06T03:43:15.930Z,11.50
2023-03-06T03:44:15.927Z,11.90
2023-03-06T03:45:15.946Z,11.90
2023-03-06T03:46:15.931Z,14.30
2023-03-06T03:47:15.923Z,12.00
2023-03-06T03:48:15.890Z,12.10
2023-03-06T03:49:15.880Z,12.00
2023-03-06T03:50:15.893Z,11.60
2023-03-06T03:51:15.863Z,11.60
2023-03-06T03:52:15.834Z,11.80
2023-03-06T03:53:15.818Z,12.10
2023-03-06T03:54:15.833Z,12.90
2023-03-06T03:55:15.793Z,11.20
2023-03-06T03:56:15.813Z,11.40
2023-03-06T03:57:15.800Z,10.70
2023-03-06T03:58:15.793Z,12.40
2023-03-06T03:59:15.778Z,11.10
2023-03-06T04:00:15.757Z,11.70
2023-03-06T04:01:15.744Z,10.40
2023-03-06T04:02:15.816Z,12.00
2023-03-06T04:03:15.739Z,11.30
2023-03-06T04:04:15.721Z,14.00
2023-03-06T04:05:15.688Z,10.90
2023-03-06T04:06:15.676Z,12.90
2023-03-06T04:07:15.664Z,12.60
2023-03-06T04:08:15.745Z,10.30
2023-03-06T04:09:15.671Z,12.80
2023-03-06T04:10:15.641Z,11.00
2023-03-06T04:11:15.622Z,12.50
2023-03-06T04:12:15.621Z,11.20
2023-03-06T04:13:15.601Z,10.70
2023-03-06T04:14:15.602Z,11.20
2023-03-06T04:15:15.596Z,12.10
2023-03-06T04:16:15.566Z,13.60
2023-03-06T04:17:15.557Z,11.90
2023-03-06T04:18:15.540Z,11.30
2023-03-06T04:19:15.574Z,10.90
2023-03-06T04:20:15.546Z,11.50
2023-03-06T04:21:15.510Z,10.80
2023-03-06T04:22:15.515Z,11.30
2023-03-06T04:23:15.502Z,12.80
2023-03-06T04:24:15.481Z,12.00
2023-03-06T04:25:15.499Z,11.10
2023-03-06T04:26:15.459Z,12.30
2023-03-06T04:27:15.467Z,11.80
2023-03-06T04:28:15.448Z,11.50
2023-03-06T04:29:15.426Z,12.50
2023-03-06T04:30:15.444Z,13.60
2023-03-06T04:31:15.463Z,12.20
2023-03-06T04:32:15.413Z,12.20
2023-03-06T04:33:15.387Z,12.50
2023-03-06T04:34:15.378Z,12.00
2023-03-06T04:35:15.390Z,12.20
2023-03-06T04:36:15.385Z,12.20
2023-03-06T04:37:15.356Z,12.00
2023-03-06T04:38:16.245Z,12.20
2023-03-06T04:39:15.327Z,11.90
2023-03-06T04:40:15.305Z,15.00
2023-03-06T04:41:15.317Z,14.40
2023-03-06T04:42:15.307Z,12.00
2023-03-06T04:43:15.280Z,12.00
2023-03-06T04:44:15.268Z,11.80
2023-03-06T04:45:22.793Z,12.30
2023-03-06T04:46:15.243Z,12.20
2023-03-06T04:47:16.551Z,12.70
2023-03-06T04:48:15.223Z,12.40
2023-03-06T04:49:15.207Z,12.90
2023-03-06T04:50:15.201Z,13.90
2023-03-06T04:51:15.211Z,12.70
2023-03-06T04:52:15.189Z,13.00
2023-03-06T04:53:15.175Z,11.90
2023-03-06T04:54:15.150Z,13.00
2023-03-06T04:55:15.147Z,12.40
2023-03-06T04:56:15.134Z,12.40
2023-03-06T04:57:15.177Z,12.40
2023-03-06T04:58:15.121Z,12.10
2023-03-06T04:59:15.116Z,12.80
2023-03-06T05:00:15.106Z,12.50
2023-03-06T05:01:15.146Z,14.50
2023-03-06T05:02:15.142Z,12.80
2023-03-06T05:03:15.065Z,13.60
2023-03-06T05:04:15.060Z,12.30
2023-03-06T05:05:15.029Z,12.30
2023-03-06T05:06:15.022Z,12.30
2023-03-06T05:07:15.031Z,14.80
2023-03-06T05:08:15.009Z,12.10
2023-03-06T05:09:14.984Z,13.00
2023-03-06T05:10:14.979Z,12.50
2023-03-06T05:11:14.964Z,12.90
2023-03-06T05:12:14.966Z,13.90
2023-03-06T05:13:14.948Z,11.80
2023-03-06T05:14:14.928Z,11.50
2023-03-06T05:15:14.933Z,13.70
2023-03-06T05:16:14.960Z,12.30
2023-03-06T05:17:14.898Z,11.60
2023-03-06T05:18:14.883Z,12.10
2023-03-06T05:19:15.394Z,12.10
2023-03-06T05:20:14.895Z,13.20
2023-03-06T05:21:14.862Z,12.30
2023-03-06T05:22:14.849Z,12.00
2023-03-06T05:23:14.878Z,12.30
2023-03-06T05:24:14.822Z,11.70
2023-03-06T05:25:14.841Z,11.80
2023-03-06T05:26:14.802Z,11.60
2023-03-06T05:27:16.876Z,12.40
2023-03-06T05:28:14.787Z,12.00
2023-03-06T05:29:14.772Z,12.40
2023-03-06T05:30:14.787Z,12.70
2023-03-06T05:31:14.747Z,12.20
2023-03-06T05:32:14.859Z,11.50
2023-03-06T05:33:14.770Z,12.20
2023-03-06T05:34:14.729Z,11.50
2023-03-06T05:35:14.710Z,12.00
2023-03-06T05:36:14.704Z,12.50
2023-03-06T05:37:14.679Z,11.00
2023-03-06T05:38:14.672Z,11.00
2023-03-06T05:39:14.697Z,10.80
2023-03-06T05:40:14.674Z,11.60
2023-03-06T05:41:14.658Z,11.00
2023-03-06T05:42:14.626Z,11.80
2023-03-06T05:43:14.660Z,11.90
2023-03-06T05:44:14.623Z,11.30
2023-03-06T05:45:14.608Z,12.40
2023-03-06T05:46:14.618Z,12.00
2023-03-06T05:47:14.590Z,11.80
2023-03-06T05:48:14.574Z,11.00
2023-03-06T05:49:14.553Z,11.40
2023-03-06T05:50:14.561Z,11.90
2023-03-06T05:51:14.556Z,12.20
2023-03-06T05:52:14.531Z,11.40
2023-03-06T05:53:14.517Z,11.60
2023-03-06T05:54:14.494Z,11.50
2023-03-06T05:55:14.524Z,11.20
2023-03-06T05:56:14.496Z,11.60
2023-03-06T05:57:14.493Z,11.60
2023-03-06T05:58:14.456Z,11.40
2023-03-06T05:59:14.450Z,12.10
2023-03-06T06:00:14.451Z,11.90
2023-03-06T06:01:14.436Z,11.80
2023-03-06T06:02:14.456Z,13.30
2023-03-06T06:03:14.459Z,12.10
2023-03-06T06:04:14.396Z,12.10
2023-03-06T06:05:14.381Z,11.90
2023-03-06T06:06:14.388Z,12.50
2023-03-06T06:07:14.515Z,11.80
2023-03-06T06:08:14.336Z,11.90
2023-03-06T06:09:14.328Z,12.20
2023-03-06T06:10:14.335Z,12.60
2023-03-06T06:11:14.355Z,14.10
2023-03-06T06:12:14.311Z,12.10
2023-03-06T06:13:14.314Z,12.70
2023-03-06T06:14:14.271Z,12.70
2023-03-06T06:15:14.282Z,13.90
2023-03-06T06:16:14.362Z,13.70
2023-03-06T06:17:14.249Z,12.40
2023-03-06T06:18:14.228Z,13.20
2023-03-06T06:19:14.236Z,13.60
2023-03-06T06:20:14.261Z,13.40
2023-03-06T06:21:14.206Z,14.10
2023-03-06T06:22:14.196Z,14.10
2023-03-06T06:23:14.189Z,14.00
2023-03-06T06:24:14.186Z,13.60
2023-03-06T06:25:14.161Z,14.10
2023-03-06T06:26:14.183Z,14.00
2023-03-06T06:27:14.166Z,13.80
2023-03-06T06:28:14.129Z,14.20
2023-03-06T06:29:14.123Z,16.20
2023-03-06T06:30:14.140Z,12.80
2023-03-06T06:31:14.184Z,13.90
2023-03-06T06:32:14.128Z,13.80
2023-03-06T06:33:14.098Z,13.70
2023-03-06T06:34:14.065Z,13.50
2023-03-06T06:35:14.068Z,13.50
2023-03-06T06:36:14.030Z,13.50
2023-03-06T06:37:14.037Z,14.80
2023-03-06T06:38:14.048Z,13.40
2023-03-06T06:39:14.008Z,13.60
2023-03-06T06:40:14.038Z,13.70
2023-03-06T06:41:46.199Z,14.40
2023-03-06T06:42:30.502Z,14.40
2023-03-06T06:43:15.012Z,13.60
2023-03-06T06:44:13.947Z,14.70
2023-03-06T06:45:13.973Z,13.90
2023-03-06T06:47:02.623Z,14.60
2023-03-06T06:47:22.766Z,13.40
2023-03-06T06:48:16.699Z,14.90
2023-03-06T06:49:13.900Z,12.90
2023-03-06T06:50:14.848Z,13.90
2023-03-06T06:51:13.902Z,13.90
2023-03-06T06:52:14.110Z,13.70
2023-03-06T06:53:13.933Z,14.50
2023-03-06T06:54:13.843Z,15.80
2023-03-06T06:55:13.837Z,14.70
2023-03-06T06:56:13.821Z,16.70
2023-03-06T06:57:14.085Z,16.00
2023-03-06T06:58:13.799Z,15.00
2023-03-06T06:59:16.980Z,15.20
2023-03-06T07:00:13.781Z,16.30
2023-03-06T07:01:13.798Z,16.00
2023-03-06T07:02:13.780Z,17.60
2023-03-06T07:03:13.836Z,16.80
2023-03-06T07:04:13.847Z,16.20
2023-03-06T07:05:13.775Z,14.90
2023-03-06T07:06:13.713Z,15.60
2023-03-06T07:07:13.737Z,16.70
2023-03-06T07:08:13.695Z,16.90
2023-03-06T07:09:13.723Z,15.10
2023-03-06T07:10:13.722Z,14.60
2023-03-06T07:11:13.902Z,14.60
2023-03-06T07:12:13.659Z,15.50
2023-03-06T07:13:13.653Z,13.60
2023-03-06T07:14:13.624Z,13.70
2023-03-06T07:15:13.661Z,13.00
2023-03-06T07:16:13.690Z,13.90
2023-03-06T07:17:13.673Z,12.80
2023-03-06T07:18:13.618Z,12.70
2023-03-06T07:19:13.575Z,13.00
2023-03-06T07:20:13.568Z,12.40
2023-03-06T07:21:13.544Z,14.40
2023-03-06T07:22:13.548Z,13.20
2023-03-06T07:23:13.564Z,12.60
2023-03-06T07:24:13.551Z,13.10
2023-03-06T07:25:13.535Z,12.70
2023-03-06T07:26:13.495Z,11.60
2023-03-06T07:27:13.496Z,12.40
2023-03-06T07:28:13.545Z,13.00
2023-03-06T07:29:13.490Z,13.50
2023-03-06T07:30:13.454Z,12.60
2023-03-06T07:31:13.506Z,12.30
2023-03-06T07:32:13.500Z,13.10
2023-03-06T07:33:13.455Z,12.30
2023-03-06T07:34:13.429Z,12.80
2023-03-06T07:35:20.135Z,13.50
2023-03-06T07:36:14.037Z,11.40
2023-03-06T07:37:13.388Z,13.20
2023-03-06T07:38:13.439Z,11.90
2023-03-06T07:39:13.377Z,12.30
2023-03-06T07:40:13.342Z,10.30
2023-03-06T07:41:13.422Z,11.20
2023-03-06T07:42:13.334Z,9.80
2023-03-06T07:43:19.364Z,11.60
2023-03-06T07:44:13.338Z,10.20
2023-03-06T07:45:13.295Z,11.60
2023-03-06T07:46:13.414Z,9.80
2023-03-06T07:47:13.332Z,10.10
2023-03-06T07:48:13.275Z,11.80
2023-03-06T07:49:13.290Z,9.60
2023-03-06T07:50:13.236Z,10.20
2023-03-06T07:51:13.252Z,10.00
2023-03-06T07:52:13.234Z,10.80
2023-03-06T07:53:13.238Z,10.20
2023-03-06T07:54:13.208Z,9.50
2023-03-06T07:55:13.181Z,9.70
2023-03-06T07:56:13.200Z,9.10
2023-03-06T07:57:13.180Z,8.60
2023-03-06T07:58:13.162Z,8.40
2023-03-06T07:59:13.139Z,8.80
2023-03-06T08:00:13.156Z,10.30
2023-03-06T08:01:13.146Z,8.50
2023-03-06T08:02:13.821Z,8.80
2023-03-06T08:03:13.227Z,7.70
2023-03-06T08:04:14.341Z,9.20
2023-03-06T08:05:13.179Z,9.70
2023-03-06T08:06:13.083Z,8.50
2023-03-06T08:07:13.059Z,8.30
2023-03-06T08:08:13.068Z,8.40
2023-03-06T08:09:13.033Z,8.80
2023-03-06T08:10:13.021Z,8.90
2023-03-06T08:11:13.025Z,9.20
2023-03-06T08:12:14.686Z,9.00
2023-03-06T08:13:13.027Z,8.40
2023-03-06T08:14:12.986Z,8.60
2023-03-06T08:15:12.997Z,8.50
2023-03-06T08:16:13.851Z,9.80
2023-03-06T08:17:12.943Z,9.20
2023-03-06T08:18:12.923Z,10.10
2023-03-06T08:19:12.946Z,9.00
2023-03-06T08:20:12.922Z,10.10
2023-03-06T08:21:14.274Z,8.90
2023-03-06T08:22:12.961Z,10.00
2023-03-06T08:23:12.914Z,10.00
2023-03-06T08:24:12.867Z,9.90
2023-03-06T08:25:13.026Z,9.60
2023-03-06T08:26:12.851Z,10.90
2023-03-06T08:27:12.823Z,9.60
2023-03-06T08:28:12.840Z,10.10
2023-03-06T08:29:12.802Z,10.90
2023-03-06T08:30:12.788Z,10.20
2023-03-06T08:31:12.832Z,9.60
2023-03-06T08:32:12.844Z,10.90
2023-03-06T08:33:12.839Z,10.60
2023-03-06T08:34:12.755Z,10.70
2023-03-06T08:35:12.810Z,10.70
2023-03-06T08:36:13.161Z,10.40
2023-03-06T08:37:12.804Z,11.10
2023-03-06T08:38:12.775Z,10.10
2023-03-06T08:39:13.327Z,10.80
2023-03-06T08:40:12.764Z,10.90
2023-03-06T08:41:13.432Z,10.40
2023-03-06T08:42:13.343Z,10.00
2023-03-06T08:43:14.162Z,12.60
2023-03-06T08:44:12.691Z,11.60
2023-03-06T08:45:12.674Z,11.00
2023-03-06T08:46:12.644Z,12.10
2023-03-06T08:47:20.310Z,11.80
2023-03-06T08:48:13.620Z,11.90
2023-03-06T08:49:12.621Z,12.90
2023-03-06T08:50:12.601Z,11.90
2023-03-06T08:51:12.616Z,12.00
2023-03-06T08:52:12.591Z,12.60
2023-03-06T08:53:12.621Z,11.60
2023-03-06T08:54:12.545Z,12.80
2023-03-06T08:55:14.788Z,12.20
2023-03-06T08:56:12.538Z,13.40
2023-03-06T08:57:12.544Z,11.40
2023-03-06T08:58:12.622Z,13.10
2023-03-06T08:59:12.545Z,13.00
2023-03-06T09:00:12.514Z,12.90
2023-03-06T09:01:12.539Z,14.00
2023-03-06T09:02:12.476Z,12.80
2023-03-06T09:03:12.443Z,13.60
2023-03-06T09:04:12.516Z,12.10
2023-03-06T09:05:12.825Z,13.30
2023-03-06T09:06:12.401Z,12.80
2023-03-06T09:07:12.410Z,12.90
2023-03-06T09:08:12.394Z,12.70
2023-03-06T09:09:12.367Z,12.40
2023-03-06T09:10:12.357Z,13.70
2023-03-06T09:11:12.357Z,12.30
2023-03-06T09:12:12.332Z,12.80
2023-03-06T09:13:12.318Z,13.00
2023-03-06T09:14:12.324Z,12.30
2023-03-06T09:15:12.298Z,12.70
2023-03-06T09:16:12.354Z,12.70
2023-03-06T09:17:12.300Z,13.10
2023-03-06T09:18:12.266Z,12.60
2023-03-06T09:19:12.278Z,12.70
2023-03-06T09:20:12.292Z,14.10
2023-03-06T09:21:12.257Z,12.70
2023-03-06T09:22:12.239Z,12.80
2023-03-06T09:23:12.244Z,12.50
2023-03-06T09:24:12.211Z,12.40
2023-03-06T09:25:12.781Z,13.00
2023-03-06T09:26:12.300Z,12.80
2023-03-06T09:27:12.210Z,12.80
2023-03-06T09:28:12.451Z,11.80
2023-03-06T09:29:12.168Z,11.70
2023-03-06T09:30:12.163Z,11.60
2023-03-06T09:31:12.240Z,12.10
2023-03-06T09:32:12.362Z,10.80
2023-03-06T09:33:12.132Z,11.00
2023-03-06T09:34:12.194Z,12.50
2023-03-06T09:35:12.122Z,11.40
2023-03-06T09:36:12.124Z,12.00
2023-03-06T09:37:12.069Z,11.40
2023-03-06T09:38:12.095Z,11.00
2023-03-06T09:39:12.157Z,10.50
2023-03-06T09:40:12.077Z,11.20
2023-03-06T09:41:12.019Z,11.20
2023-03-06T09:42:12.057Z,11.70
2023-03-06T09:43:12.072Z,11.40
2023-03-06T09:44:12.049Z,11.60
2023-03-06T09:45:11.979Z,11.40
2023-03-06T09:46:12.017Z,11.00
2023-03-06T09:47:11.950Z,11.00
2023-03-06T09:48:12.010Z,11.80
2023-03-06T09:49:11.941Z,10.60
2023-03-06T09:50:11.988Z,13.10
2023-03-06T09:51:11.935Z,12.10
2023-03-06T09:52:11.988Z,11.40
2023-03-06T09:53:12.879Z,11.60
2023-03-06T09:54:11.906Z,12.40
2023-03-06T09:55:11.890Z,11.80
2023-03-06T09:56:11.882Z,12.50
2023-03-06T09:57:11.887Z,12.40
2023-03-06T09:58:11.887Z,13.00
2023-03-06T09:59:11.841Z,13.30
2023-03-06T10:00:11.846Z,11.80
2023-03-06T10:01:11.817Z,12.70
2023-03-06T10:02:11.913Z,12.30
2023-03-06T10:03:11.854Z,13.40
2023-03-06T10:04:11.780Z,12.80
2023-03-06T10:05:11.851Z,11.70
2023-03-06T10:06:11.805Z,12.70
2023-03-06T10:07:11.746Z,13.60
2023-03-06T10:08:11.737Z,13.20
2023-03-06T10:09:11.728Z,13.50
2023-03-06T10:10:11.700Z,12.50
2023-03-06T10:11:11.716Z,12.90
2023-03-06T10:12:11.787Z,12.80
2023-03-06T10:13:11.662Z,13.50
2023-03-06T10:14:11.653Z,11.90
2023-03-06T10:15:11.652Z,12.40
2023-03-06T10:16:11.662Z,11.80
2023-03-06T10:17:11.679Z,12.20
2023-03-06T10:18:11.642Z,11.50
2023-03-06T10:19:11.689Z,11.20
2023-03-06T10:20:11.607Z,10.30
2023-03-06T10:21:19.062Z,10.40
2023-03-06T10:22:11.643Z,9.50
2023-03-06T10:23:12.097Z,9.90
2023-03-06T10:24:12.299Z,8.90
2023-03-06T10:25:11.543Z,8.70
2023-03-06T10:26:11.700Z,8.80
2023-03-06T10:27:13.372Z,8.30
2023-03-06T10:28:12.529Z,8.60
2023-03-06T10:29:11.497Z,8.20
2023-03-06T10:30:11.491Z,7.60
2023-03-06T10:31:11.553Z,8.10
2023-03-06T10:32:11.509Z,7.90
2023-03-06T10:33:11.468Z,8.00
2023-03-06T10:34:11.438Z,8.30
2023-03-06T10:35:11.425Z,8.30
2023-03-06T10:36:11.521Z,7.70
2023-03-06T10:37:11.409Z,7.00
2023-03-06T10:38:11.399Z,6.10
2023-03-06T10:39:11.415Z,6.40
2023-03-06T10:40:11.424Z,6.10
2023-03-06T10:41:11.418Z,6.40
2023-03-06T10:42:11.390Z,6.10
2023-03-06T10:43:12.332Z,6.20
2023-03-06T10:44:11.379Z,5.60
2023-03-06T10:45:11.336Z,5.80
2023-03-06T10:46:11.369Z,5.90
2023-03-06T10:47:11.312Z,6.60
2023-03-06T10:48:18.798Z,5.90
2023-03-06T10:49:11.511Z,5.80
2023-03-06T10:50:11.297Z,5.30
2023-03-06T10:51:18.025Z,5.50
2023-03-06T10:52:11.249Z,5.60
2023-03-06T10:53:11.281Z,6.00
2023-03-06T10:54:11.243Z,5.50
2023-03-06T10:55:12.715Z,5.10
2023-03-06T10:56:11.212Z,4.50
2023-03-06T10:57:11.257Z,4.40
2023-03-06T10:58:11.267Z,4.40
2023-03-06T10:59:11.194Z,4.50
2023-03-06T11:00:11.158Z,5.10
2023-03-06T11:01:11.243Z,4.30
2023-03-06T11:02:11.160Z,3.90
2023-03-06T11:03:11.165Z,4.50
2023-03-06T11:04:11.152Z,3.80
2023-03-06T11:05:11.193Z,3.40
2023-03-06T11:06:13.021Z,3.80
2023-03-06T11:07:11.093Z,3.70
2023-03-06T11:08:11.097Z,3.80
2023-03-06T11:09:11.080Z,3.00
2023-03-06T11:10:11.089Z,3.40
2023-03-06T11:11:11.067Z,3.60
2023-03-06T11:12:11.044Z,3.20
2023-03-06T11:13:11.028Z,3.50
2023-03-06T11:14:11.008Z,3.60
2023-03-06T11:15:11.090Z,4.20
2023-03-06T11:16:11.082Z,3.40
2023-03-06T11:17:11.000Z,4.40
2023-03-06T11:18:10.992Z,3.40
2023-03-06T11:19:10.959Z,3.50
2023-03-06T11:20:11.188Z,3.50
2023-03-06T11:21:10.966Z,3.30
2023-03-06T11:22:10.929Z,3.40
2023-03-06T11:23:11.084Z,3.40
2023-03-06T11:24:10.986Z,2.90
2023-03-06T11:25:10.883Z,3.30
2023-03-06T11:26:10.883Z,3.20
2023-03-06T11:27:11.044Z,3.50
2023-03-06T11:28:10.865Z,3.50
2023-03-06T11:29:10.894Z,3.00
2023-03-06T11:30:10.820Z,3.70
2023-03-06T11:31:10.891Z,3.20
2023-03-06T11:32:10.859Z,4.50
2023-03-06T11:33:10.804Z,3.10
2023-03-06T11:34:10.835Z,2.80
2023-03-06T11:35:10.774Z,3.90
2023-03-06T11:36:10.774Z,3.50
2023-03-06T11:37:10.800Z,3.30
2023-03-06T11:38:10.742Z,3.60
2023-03-06T11:39:10.750Z,3.10
2023-03-06T11:40:10.760Z,3.40
2023-03-06T11:41:10.724Z,3.40
2023-03-06T11:42:10.689Z,3.70
2023-03-06T11:43:10.696Z,3.30
2023-03-06T11:44:10.670Z,3.40
2023-03-06T11:45:10.654Z,4.00
2023-03-06T11:46:10.673Z,3.60
2023-03-06T11:47:10.659Z,3.50
2023-03-06T11:48:10.640Z,3.70
2023-03-06T11:49:10.632Z,2.90
2023-03-06T11:50:10.608Z,3.40
2023-03-06T11:51:10.723Z,3.30
2023-03-06T11:52:10.595Z,3.30
2023-03-06T11:53:10.651Z,3.30
2023-03-06T11:54:10.580Z,3.20
2023-03-06T11:55:10.545Z,3.60
2023-03-06T11:56:10.547Z,3.40
2023-03-06T11:57:10.526Z,3.50
2023-03-06T11:58:10.551Z,2.90
2023-03-06T11:59:10.579Z,3.00
2023-03-06T12:00:10.495Z,4.00
2023-03-06T12:01:10.487Z,2.70
2023-03-06T12:02:10.531Z,2.80
2023-03-06T12:03:10.564Z,2.80
2023-03-06T12:04:10.506Z,2.70
2023-03-06T12:05:10.518Z,2.70
2023-03-06T12:06:10.547Z,2.70
2023-03-06T12:07:10.502Z,3.10
2023-03-06T12:08:10.470Z,2.90
2023-03-06T12:09:10.478Z,3.00
2023-03-06T12:10:10.453Z,2.90
2023-03-06T12:11:11.416Z,3.40
2023-03-06T12:12:10.380Z,2.60
2023-03-06T12:13:10.369Z,3.00
2023-03-06T12:14:10.401Z,2.90
2023-03-06T12:15:10.399Z,2.80
2023-03-06T12:16:10.467Z,3.10
2023-03-06T12:17:10.445Z,2.40
2023-03-06T12:18:10.313Z,3.10
2023-03-06T12:19:10.310Z,3.20
2023-03-06T12:20:10.274Z,2.80
2023-03-06T12:21:10.268Z,3.10
2023-03-06T12:22:10.258Z,3.30
2023-03-06T12:23:15.329Z,3.30
2023-03-06T12:24:10.231Z,2.80
2023-03-06T12:25:10.217Z,3.30
2023-03-06T12:26:10.218Z,3.80
2023-03-06T12:27:10.194Z,3.40
2023-03-06T12:28:10.261Z,3.60
2023-03-06T12:29:10.214Z,3.60
2023-03-06T12:30:10.257Z,3.30
2023-03-06T12:31:10.160Z,3.50
2023-03-06T12:32:10.305Z,3.50
2023-03-06T12:33:10.121Z,3.50
2023-03-06T12:34:10.143Z,3.20
2023-03-06T12:35:10.125Z,3.40
2023-03-06T12:36:10.107Z,3.40
2023-03-06T12:37:10.087Z,3.20
2023-03-06T12:38:10.066Z,3.30
2023-03-06T12:39:10.074Z,3.50
2023-03-06T12:40:10.043Z,3.40
2023-03-06T12:41:10.048Z,3.30
2023-03-06T12:42:17.832Z,2.80
2023-03-06T12:43:10.029Z,3.50
2023-03-06T12:44:09.999Z,3.30
2023-03-06T12:45:10.142Z,3.20
2023-03-06T12:46:10.200Z,3.40
2023-03-06T12:47:09.997Z,3.00
2023-03-06T12:48:10.162Z,3.20
2023-03-06T12:49:26.378Z,3.70
2023-03-06T12:50:09.953Z,3.70
2023-03-06T12:51:09.956Z,3.90
2023-03-06T12:52:11.034Z,3.20
2023-03-06T12:53:09.935Z,3.60
2023-03-06T12:54:10.038Z,3.60
2023-03-06T12:55:09.894Z,3.50
2023-03-06T12:56:09.916Z,3.70
2023-03-06T12:57:09.895Z,3.90
2023-03-06T12:58:09.880Z,3.80